createdAt,value
2018-09-19T00:01:06.679Z,8.13
2018-09-19T00:03:37.474Z,6.43
2018-09-19T00:06:08.273Z,10.77
2018-09-19T00:08:39.116Z,5.47
2018-09-19T00:11:10.215Z,5.50
2018-09-19T00:13:40.987Z,5.70
2018-09-19T00:16:11.886Z,8.23
2018-09-19T00:18:43.035Z,8.00
2018-09-19T00:21:14.063Z,6.27
2018-09-19T00:23:45.273Z,6.57
2018-09-19T00:26:16.309Z,9.03
2018-09-19T00:28:47.165Z,9.70
2018-09-19T00:31:17.997Z,7.33
2018-09-19T00:33:48.857Z,6.67
2018-09-19T00:36:19.737Z,5.53
2018-09-19T00:38:50.495Z,6.70
2018-09-19T00:41:21.697Z,7.07
2018-09-19T00:43:52.574Z,7.67
2018-09-19T00:46:23.382Z,8.63
2018-09-19T00:48:54.237Z,8.27
2018-09-19T00:51:25.537Z,7.60
2018-09-19T00:53:56.355Z,6.77
2018-09-19T00:56:27.134Z,8.23
2018-09-19T00:58:58.012Z,7.10
2018-09-19T01:01:28.840Z,7.50
2018-09-19T01:03:59.639Z,7.40
2018-09-19T01:06:30.425Z,7.80
2018-09-19T01:09:01.431Z,10.17
2018-09-19T01:11:32.309Z,8.43
2018-09-19T01:16:39.053Z,10.20
2018-09-19T01:19:10.050Z,8.47
2018-09-19T01:21:40.850Z,7.83
2018-09-19T01:24:11.752Z,9.93
2018-09-19T01:26:42.578Z,11.57
2018-09-19T01:29:13.367Z,11.23
2018-09-19T01:31:44.203Z,12.17
2018-09-19T01:34:14.970Z,10.60
2018-09-19T01:36:45.798Z,9.23
2018-09-19T01:39:16.638Z,11.00
2018-09-19T01:41:47.502Z,12.33
2018-09-19T01:44:18.314Z,10.33
2018-09-19T01:46:49.158Z,12.40
2018-09-19T01:49:20.059Z,11.60
2018-09-19T01:51:54.418Z,11.83
2018-09-19T01:54:26.238Z,11.40
2018-09-19T01:56:57.031Z,10.93
2018-09-19T01:59:27.832Z,10.83
2018-09-19T02:01:58.620Z,10.73
2018-09-19T02:04:29.434Z,9.90
2018-09-19T02:07:00.221Z,9.97
2018-09-19T02:09:31.073Z,12.53
2018-09-19T02:12:01.953Z,10.07
2018-09-19T02:14:32.813Z,8.73
2018-09-19T02:17:04.099Z,9.70
2018-09-19T02:19:35.076Z,9.47
2018-09-19T02:22:05.852Z,8.27
2018-09-19T02:24:36.698Z,8.73
2018-09-19T02:27:07.512Z,10.10
2018-09-19T02:29:38.220Z,7.77
2018-09-19T02:32:08.968Z,7.47
2018-09-19T02:34:39.711Z,7.67
2018-09-19T02:37:10.439Z,7.73
2018-09-19T02:39:41.176Z,7.07
2018-09-19T02:42:12.332Z,7.23
2018-09-19T02:44:43.209Z,6.20
2018-09-19T02:47:13.930Z,5.63
2018-09-19T02:49:44.699Z,8.67
2018-09-19T02:52:15.393Z,7.97
2018-09-19T02:54:46.233Z,6.50
2018-09-19T02:57:16.997Z,8.77
2018-09-19T02:59:47.755Z,8.33
2018-09-19T03:02:18.453Z,6.70
2018-09-19T03:04:49.136Z,8.20
2018-09-19T03:07:19.842Z,8.43
2018-09-19T03:09:50.600Z,8.10
2018-09-19T03:12:21.475Z,8.43
2018-09-19T03:14:52.275Z,7.83
2018-09-19T03:17:23.069Z,10.37
2018-09-19T03:19:53.802Z,6.97
2018-09-19T03:22:24.571Z,8.03
2018-09-19T03:24:55.322Z,11.73
2018-09-19T03:27:26.165Z,7.53
2018-09-19T03:29:56.918Z,7.40
2018-09-19T03:32:27.674Z,10.80
2018-09-19T03:34:58.467Z,5.70
2018-09-19T03:37:29.187Z,8.17
2018-09-19T03:39:59.954Z,6.87
2018-09-19T03:42:30.729Z,6.70
2018-09-19T03:45:01.467Z,8.77
2018-09-19T03:47:32.186Z,7.30
2018-09-19T03:50:02.959Z,9.97
2018-09-19T03:52:33.697Z,5.47
2018-09-19T03:55:04.453Z,6.10
2018-09-19T03:57:35.471Z,7.33
2018-09-19T04:00:06.456Z,5.77
2018-09-19T04:02:37.236Z,5.97
2018-09-19T04:05:08.048Z,5.67
2018-09-19T04:07:38.793Z,5.10
2018-09-19T04:10:09.511Z,7.00
2018-09-19T04:12:40.539Z,5.87
2018-09-19T04:15:11.299Z,5.53
2018-09-19T04:17:42.100Z,5.10
2018-09-19T04:20:12.796Z,6.97
2018-09-19T04:22:43.591Z,6.17
2018-09-19T04:25:14.319Z,7.00
2018-09-19T04:27:45.494Z,7.90
2018-09-19T04:30:16.186Z,7.87
2018-09-19T04:32:46.931Z,7.17
2018-09-19T04:35:17.681Z,7.90
2018-09-19T04:37:48.456Z,7.93
2018-09-19T04:40:19.209Z,7.47
2018-09-19T04:42:50.245Z,7.57
2018-09-19T04:45:21.199Z,6.60
2018-09-19T04:47:51.858Z,7.57
2018-09-19T04:50:22.911Z,7.07
2018-09-19T04:52:53.735Z,7.23
2018-09-19T04:55:24.531Z,7.73
2018-09-19T04:57:55.403Z,7.50
2018-09-19T05:00:26.711Z,11.13
2018-09-19T05:02:57.338Z,7.57
2018-09-19T05:05:28.079Z,6.00
2018-09-19T05:07:58.963Z,6.83
2018-09-19T05:10:30.037Z,7.30
2018-09-19T05:13:00.837Z,9.63
2018-09-19T05:15:31.572Z,7.37
2018-09-19T05:18:02.401Z,6.90
2018-09-19T05:20:33.097Z,8.07
2018-09-19T05:23:03.892Z,6.67
2018-09-19T05:25:34.678Z,6.47
2018-09-19T05:28:05.520Z,6.90
2018-09-19T05:30:36.391Z,7.63
2018-09-19T05:33:07.225Z,7.87
2018-09-19T05:35:37.987Z,7.40
2018-09-19T05:38:08.938Z,7.97
2018-09-19T05:40:39.684Z,7.30
2018-09-19T05:43:10.477Z,8.20
2018-09-19T05:45:41.207Z,8.27
2018-09-19T05:48:11.919Z,7.63
2018-09-19T05:50:42.640Z,8.00
2018-09-19T05:53:13.552Z,9.83
2018-09-19T05:55:44.507Z,8.67
2018-09-19T05:58:15.311Z,9.43
2018-09-19T06:00:45.998Z,8.13
2018-09-19T06:03:17.067Z,8.20
2018-09-19T06:05:47.814Z,8.47
2018-09-19T06:08:18.615Z,7.30
2018-09-19T06:10:49.668Z,7.60
2018-09-19T06:13:20.330Z,8.00
2018-09-19T06:15:51.203Z,8.63
2018-09-19T06:18:21.882Z,9.10
2018-09-19T06:20:53.173Z,8.10
2018-09-19T06:23:23.877Z,8.70
2018-09-19T06:25:54.640Z,8.10
2018-09-19T06:28:25.326Z,8.93
2018-09-19T06:30:56.422Z,9.10
2018-09-19T06:33:27.105Z,11.87
2018-09-19T06:35:57.974Z,9.10
2018-09-19T06:38:28.752Z,8.43
2018-09-19T06:40:59.648Z,7.97
2018-09-19T06:43:30.366Z,8.13
2018-09-19T06:46:01.149Z,9.83
2018-09-19T06:48:31.854Z,8.87
2018-09-19T06:51:02.799Z,8.90
2018-09-19T06:53:33.664Z,8.77
2018-09-19T06:56:04.520Z,8.83
2018-09-19T06:58:35.355Z,9.17
2018-09-19T07:01:06.155Z,8.37
2018-09-19T07:03:37.245Z,10.30
2018-09-19T07:06:08.146Z,13.27
2018-09-19T07:08:38.998Z,10.70
2018-09-19T07:11:09.898Z,8.53
2018-09-19T07:13:40.792Z,9.50
2018-09-19T07:16:11.735Z,8.97
2018-09-19T07:18:42.517Z,8.53
2018-09-19T07:21:13.665Z,8.90
2018-09-19T07:23:44.450Z,9.77
2018-09-19T07:26:15.316Z,8.63
2018-09-19T07:28:46.214Z,9.67
2018-09-19T07:31:17.012Z,8.23
2018-09-19T07:33:47.913Z,11.00
2018-09-19T07:36:18.724Z,8.33
2018-09-19T07:38:49.611Z,7.93
2018-09-19T07:41:20.371Z,13.53
2018-09-19T07:43:51.219Z,7.63
2018-09-19T07:46:23.096Z,7.57
2018-09-19T07:48:54.023Z,7.37
2018-09-19T07:51:24.871Z,7.03
2018-09-19T07:53:55.964Z,7.57
2018-09-19T07:56:26.743Z,7.27
2018-09-19T07:58:57.516Z,6.17
2018-09-19T08:01:28.338Z,5.97
2018-09-19T08:03:59.156Z,5.73
2018-09-19T08:06:30.046Z,6.40
2018-09-19T08:09:00.757Z,5.13
2018-09-19T08:11:31.552Z,5.47
2018-09-19T08:14:02.331Z,5.90
2018-09-19T08:16:33.219Z,4.97
2018-09-19T08:19:04.178Z,5.57
2018-09-19T08:21:34.983Z,4.40
2018-09-19T08:24:05.693Z,5.23
2018-09-19T08:26:36.391Z,4.63
2018-09-19T08:29:07.140Z,4.83
2018-09-19T08:31:37.961Z,5.23
2018-09-19T08:34:08.844Z,5.47
2018-09-19T08:36:39.573Z,5.47
2018-09-19T08:39:11.432Z,6.50
2018-09-19T08:41:42.159Z,4.80
2018-09-19T08:44:12.893Z,6.37
2018-09-19T08:46:43.796Z,6.27
2018-09-19T08:49:14.530Z,4.97
2018-09-19T08:51:45.351Z,4.13
2018-09-19T08:54:16.024Z,5.30
2018-09-19T08:56:46.812Z,4.93
2018-09-19T08:59:17.631Z,4.90
2018-09-19T09:01:48.402Z,4.20
2018-09-19T09:04:19.103Z,3.83
2018-09-19T09:06:49.932Z,3.93
2018-09-19T09:09:20.772Z,4.77
2018-09-19T09:11:51.574Z,4.90
2018-09-19T09:14:22.323Z,3.60
2018-09-19T09:16:53.074Z,3.97
2018-09-19T09:19:23.803Z,4.13
2018-09-19T09:21:54.659Z,4.70
2018-09-19T09:24:25.402Z,5.13
2018-09-19T09:26:56.270Z,5.07
2018-09-19T09:29:27.151Z,4.10
2018-09-19T09:31:57.972Z,4.07
2018-09-19T09:34:28.935Z,4.87
2018-09-19T09:36:59.743Z,5.03
2018-09-19T09:39:30.629Z,4.07
2018-09-19T09:42:01.390Z,4.83
2018-09-19T09:44:32.233Z,5.70
2018-09-19T09:47:03.052Z,6.20
2018-09-19T09:49:33.872Z,5.40
2018-09-19T09:52:04.615Z,4.77
2018-09-19T09:54:36.110Z,4.00
2018-09-19T09:57:06.874Z,4.60
2018-09-19T09:59:37.631Z,4.40
2018-09-19T10:02:08.430Z,4.83
2018-09-19T10:04:39.251Z,4.00
2018-09-19T10:07:10.032Z,6.07
2018-09-19T10:09:40.891Z,4.33
2018-09-19T10:12:11.654Z,4.60
2018-09-19T10:14:42.622Z,5.00
2018-09-19T10:17:13.342Z,6.53
2018-09-19T10:19:44.141Z,5.73
2018-09-19T10:22:14.898Z,5.77
2018-09-19T10:24:45.623Z,4.00
2018-09-19T10:27:16.398Z,3.90
2018-09-19T10:29:47.144Z,3.80
2018-09-19T10:32:17.930Z,4.10
2018-09-19T10:34:48.691Z,4.00
2018-09-19T10:37:19.651Z,3.80
2018-09-19T10:39:50.451Z,5.77
2018-09-19T10:42:21.314Z,3.60
2018-09-19T10:44:52.095Z,4.03
2018-09-19T10:47:22.966Z,4.10
2018-09-19T10:49:54.019Z,3.87
2018-09-19T10:52:25.537Z,4.40
2018-09-19T10:54:56.532Z,3.50
2018-09-19T10:57:27.514Z,3.77
2018-09-19T10:59:58.296Z,3.63
2018-09-19T11:02:29.057Z,3.50
2018-09-19T11:05:00.124Z,7.60
2018-09-19T11:07:30.982Z,4.10
2018-09-19T11:10:01.954Z,5.60
2018-09-19T11:12:32.893Z,3.53
2018-09-19T11:15:03.900Z,3.33
2018-09-19T11:17:34.873Z,4.37
2018-09-19T11:20:06.041Z,3.80
2018-09-19T11:22:36.870Z,3.53
2018-09-19T11:25:07.753Z,5.77
2018-09-19T11:27:38.623Z,2.87
2018-09-19T11:30:09.574Z,3.20
2018-09-19T11:32:40.483Z,3.47
2018-09-19T11:35:11.385Z,4.70
2018-09-19T11:37:42.287Z,3.80
2018-09-19T11:40:13.155Z,4.53
2018-09-19T11:42:44.064Z,3.10
2018-09-19T11:45:14.938Z,3.63
2018-09-19T11:47:45.836Z,6.63
2018-09-19T11:50:16.989Z,4.77
2018-09-19T11:52:47.998Z,3.53
2018-09-19T11:55:18.934Z,3.33
2018-09-19T11:57:49.822Z,3.43
2018-09-19T12:00:20.697Z,3.33
2018-09-19T12:02:51.585Z,4.60
2018-09-19T12:05:22.454Z,3.10
2018-09-19T12:07:53.381Z,3.53
2018-09-19T12:10:24.208Z,3.50
2018-09-19T12:12:55.208Z,6.30
2018-09-19T12:15:26.058Z,4.03
2018-09-19T12:17:58.975Z,3.70
2018-09-19T12:20:29.788Z,5.43
2018-09-19T12:23:00.672Z,3.73
2018-09-19T12:25:31.593Z,3.07
2018-09-19T12:28:02.680Z,4.40
2018-09-19T12:30:33.545Z,3.03
2018-09-19T12:33:04.425Z,2.73
2018-09-19T12:35:35.558Z,3.17
2018-09-19T12:38:06.673Z,5.50
2018-09-19T12:40:37.654Z,2.67
2018-09-19T12:43:08.589Z,2.97
2018-09-19T12:45:39.457Z,3.23
2018-09-19T12:48:10.357Z,3.87
2018-09-19T12:50:41.378Z,3.30
2018-09-19T12:53:12.708Z,3.77
2018-09-19T12:55:43.572Z,3.03
2018-09-19T12:58:14.480Z,3.47
2018-09-19T13:00:45.280Z,3.03
2018-09-19T13:03:16.408Z,3.33
2018-09-19T13:05:47.513Z,4.30
2018-09-19T13:08:18.518Z,4.93
2018-09-19T13:10:49.380Z,3.73
2018-09-19T13:13:20.151Z,3.10
2018-09-19T13:15:51.006Z,3.10
2018-09-19T13:18:21.892Z,3.67
2018-09-19T13:20:52.653Z,3.67
2018-09-19T13:23:23.549Z,5.93
2018-09-19T13:25:54.402Z,6.17
2018-09-19T13:28:25.306Z,4.73
2018-09-19T13:30:56.191Z,4.67
2018-09-19T13:33:26.951Z,4.23
2018-09-19T13:35:57.738Z,8.43
2018-09-19T13:38:28.890Z,4.20
2018-09-19T13:40:59.842Z,5.13
2018-09-19T13:43:30.844Z,4.17
2018-09-19T13:46:01.833Z,4.73
2018-09-19T13:48:32.796Z,4.10
2018-09-19T13:51:15.033Z,5.10
2018-09-19T13:53:45.988Z,5.13
2018-09-19T13:56:16.912Z,4.07
2018-09-19T13:58:47.984Z,4.10
2018-09-19T14:01:19.018Z,5.03
2018-09-19T14:03:49.912Z,4.60
2018-09-19T14:06:20.793Z,4.43
2018-09-19T14:08:51.770Z,4.73
2018-09-19T14:11:22.688Z,5.10
2018-09-19T14:13:53.574Z,4.90
2018-09-19T14:16:24.454Z,6.70
2018-09-19T14:18:55.436Z,6.10
2018-09-19T14:21:26.362Z,5.13
2018-09-19T14:23:57.189Z,7.87
2018-09-19T14:26:28.672Z,5.67
2018-09-19T14:28:59.461Z,10.33
2018-09-19T14:31:30.500Z,6.80
2018-09-19T14:34:01.377Z,5.97
2018-09-19T14:36:32.266Z,5.03
2018-09-19T14:39:03.389Z,6.03
2018-09-19T14:41:34.361Z,4.73
2018-09-19T14:44:05.377Z,5.20
2018-09-19T14:46:36.381Z,5.27
2018-09-19T14:49:08.110Z,5.97
2018-09-19T14:51:39.065Z,4.87
2018-09-19T14:54:10.053Z,4.83
2018-09-19T14:56:41.150Z,4.77
2018-09-19T14:59:12.177Z,5.97
2018-09-19T15:01:43.249Z,4.83
2018-09-19T15:04:14.210Z,5.80
2018-09-19T15:06:45.130Z,4.50
2018-09-19T15:09:16.066Z,4.70
2018-09-19T15:11:47.053Z,7.77
2018-09-19T15:14:17.976Z,5.17
2018-09-19T15:16:49.027Z,5.20
2018-09-19T15:19:19.986Z,4.70
2018-09-19T15:21:50.953Z,6.10
2018-09-19T15:24:21.968Z,4.87
2018-09-19T15:26:52.836Z,5.60
2018-09-19T15:29:23.808Z,5.80
2018-09-19T15:31:54.777Z,5.67
2018-09-19T15:34:25.677Z,4.90
2018-09-19T15:36:56.779Z,4.33
2018-09-19T15:39:27.850Z,4.93
2018-09-19T15:41:59.133Z,5.03
2018-09-19T15:44:30.176Z,4.77
2018-09-19T15:47:01.825Z,4.30
2018-09-19T15:49:32.758Z,5.23
2018-09-19T15:52:03.696Z,5.90
2018-09-19T15:54:34.743Z,5.10
2018-09-19T15:57:05.770Z,4.60
2018-09-19T15:59:36.713Z,4.50
2018-09-19T16:02:07.719Z,4.70
2018-09-19T16:04:38.713Z,5.47
2018-09-19T16:07:09.709Z,5.87
2018-09-19T16:09:40.742Z,4.70
2018-09-19T16:12:11.663Z,5.37
2018-09-19T16:14:43.256Z,8.73
2018-09-19T16:17:14.178Z,4.60
2018-09-19T16:19:45.177Z,5.13
2018-09-19T16:22:18.197Z,9.27
2018-09-19T16:24:49.296Z,5.03
2018-09-19T16:27:20.439Z,6.57
2018-09-19T16:29:51.443Z,4.87
2018-09-19T16:32:22.334Z,5.80
2018-09-19T16:34:53.404Z,5.20
2018-09-19T16:37:24.315Z,6.13
2018-09-19T16:39:55.316Z,4.70
2018-09-19T16:42:26.337Z,6.60
2018-09-19T16:44:57.298Z,6.17
2018-09-19T16:47:28.261Z,7.60
2018-09-19T16:49:59.237Z,5.10
2018-09-19T16:52:30.150Z,4.93
2018-09-19T16:55:01.238Z,7.37
2018-09-19T16:57:32.150Z,6.47
2018-09-19T17:00:03.019Z,5.37
2018-09-19T17:02:34.158Z,5.93
2018-09-19T17:05:05.297Z,7.83
2018-09-19T17:07:36.290Z,5.47
2018-09-19T17:10:08.042Z,6.00
2018-09-19T17:12:38.925Z,5.17
2018-09-19T17:15:11.109Z,7.13
2018-09-19T17:17:42.167Z,7.70
2018-09-19T17:20:13.201Z,6.07
2018-09-19T17:22:44.059Z,6.40
2018-09-19T17:25:14.999Z,5.57
2018-09-19T17:27:58.179Z,6.67
2018-09-19T17:30:34.231Z,6.87
2018-09-19T17:33:05.247Z,7.20
2018-09-19T17:35:36.195Z,5.50
2018-09-19T17:38:07.198Z,6.37
2018-09-19T17:40:42.517Z,5.50
2018-09-19T17:43:13.868Z,6.87
2018-09-19T17:45:45.973Z,5.10
2018-09-19T17:48:17.220Z,5.60
2018-09-19T17:50:48.627Z,5.83
2018-09-19T17:53:19.846Z,5.87
2018-09-19T17:55:52.533Z,5.33
2018-09-19T17:58:24.173Z,5.60
2018-09-19T18:00:55.705Z,5.63
2018-09-19T18:03:27.981Z,7.83
2018-09-19T18:06:00.164Z,6.63
2018-09-19T18:08:31.773Z,6.60
2018-09-19T18:11:05.425Z,5.77
2018-09-19T18:13:38.492Z,5.40
2018-09-19T18:16:09.698Z,8.73
2018-09-19T18:18:41.670Z,5.50
2018-09-19T18:21:18.721Z,6.50
2018-09-19T18:23:55.139Z,6.13
2018-09-19T18:26:31.740Z,5.63
2018-09-19T18:29:09.038Z,10.63
2018-09-19T18:31:45.719Z,6.53
2018-09-19T18:34:24.329Z,10.53
2018-09-19T18:37:00.641Z,5.70
2018-09-19T18:39:39.176Z,5.33
2018-09-19T18:42:15.802Z,6.13
2018-09-19T18:44:52.226Z,5.63
2018-09-19T18:47:28.698Z,6.13
2018-09-19T18:50:05.329Z,7.60
2018-09-19T18:52:41.811Z,6.70
2018-09-19T18:55:18.160Z,6.47
2018-09-19T18:57:54.443Z,5.67
2018-09-19T19:00:31.190Z,6.97
2018-09-19T19:03:09.277Z,6.87
2018-09-19T19:05:46.234Z,9.17
2018-09-19T19:08:23.927Z,7.73
2018-09-19T19:11:00.908Z,10.17
2018-09-19T19:13:37.742Z,8.63
2018-09-19T19:16:15.112Z,5.90
2018-09-19T19:18:52.835Z,7.13
2018-09-19T19:21:30.509Z,8.97
2018-09-19T19:24:07.757Z,8.17
2018-09-19T19:26:45.983Z,8.30
2018-09-19T19:29:22.760Z,9.37
2018-09-19T19:31:59.923Z,6.87
2018-09-19T19:34:36.638Z,7.03
2018-09-19T19:37:13.375Z,7.20
2018-09-19T19:39:49.836Z,7.43
2018-09-19T19:42:26.166Z,6.97
2018-09-19T19:45:02.957Z,8.10
2018-09-19T19:47:41.489Z,7.67
2018-09-19T19:50:18.097Z,8.30
2018-09-19T19:52:54.883Z,8.07
2018-09-19T19:55:31.797Z,7.30
2018-09-19T19:58:08.845Z,7.13
2018-09-19T20:00:45.605Z,8.00
2018-09-19T20:03:22.449Z,6.67
2018-09-19T20:05:59.215Z,6.00
2018-09-19T20:08:36.307Z,8.83
2018-09-19T20:11:12.651Z,6.87
2018-09-19T20:13:49.178Z,8.37
2018-09-19T20:16:25.500Z,8.13
2018-09-19T20:19:02.301Z,8.93
2018-09-19T20:21:38.775Z,10.37
2018-09-19T20:24:15.840Z,9.07
2018-09-19T20:26:57.282Z,5.73
2018-09-19T20:29:33.758Z,7.97
2018-09-19T20:32:10.146Z,7.67
2018-09-19T20:34:47.036Z,9.43
2018-09-19T20:37:23.646Z,8.33
2018-09-19T20:40:00.449Z,7.43
2018-09-19T20:42:37.013Z,6.07
2018-09-19T20:45:13.596Z,6.33
2018-09-19T20:47:49.930Z,9.67
2018-09-19T20:50:26.562Z,6.90
2018-09-19T20:53:03.161Z,6.53
2018-09-19T20:55:39.819Z,9.10
2018-09-19T20:58:16.481Z,10.73
2018-09-19T21:00:52.955Z,7.17
2018-09-19T21:03:30.276Z,7.83
2018-09-19T21:06:06.825Z,8.87
2018-09-19T21:08:43.288Z,5.97
2018-09-19T21:11:19.899Z,10.67
2018-09-19T21:13:56.997Z,7.20
2018-09-19T21:16:33.530Z,5.87
2018-09-19T21:19:10.005Z,6.33
2018-09-19T21:21:46.579Z,8.43
2018-09-19T21:24:23.366Z,12.80
2018-09-19T21:27:00.074Z,9.40
2018-09-19T21:29:36.805Z,8.57
2018-09-19T21:32:13.497Z,10.83
2018-09-19T21:34:50.257Z,5.63
2018-09-19T21:37:26.870Z,5.93
2018-09-19T21:40:03.641Z,5.90
2018-09-19T21:42:40.292Z,6.97
2018-09-19T21:45:16.793Z,11.17
2018-09-19T21:47:53.334Z,7.40
2018-09-19T21:50:30.073Z,7.03
2018-09-19T21:53:06.680Z,9.53
2018-09-19T21:55:43.264Z,6.20
2018-09-19T21:58:19.757Z,7.37
2018-09-19T22:01:01.455Z,7.67
2018-09-19T22:03:39.937Z,6.07
2018-09-19T22:06:16.665Z,7.13
2018-09-19T22:08:53.565Z,6.53
2018-09-19T22:11:30.105Z,6.07
2018-09-19T22:14:06.748Z,6.97
2018-09-19T22:16:43.341Z,7.97
2018-09-19T22:19:19.863Z,8.43
2018-09-19T22:21:56.501Z,7.03
2018-09-19T22:24:33.241Z,6.17
2018-09-19T22:27:09.860Z,10.10
2018-09-19T22:29:46.363Z,6.43
2018-09-19T22:32:22.945Z,5.53
2018-09-19T22:34:59.573Z,6.50
2018-09-19T22:37:35.997Z,8.43
2018-09-19T22:40:12.728Z,10.93
2018-09-19T22:42:49.281Z,6.23
2018-09-19T22:45:25.742Z,5.93
2018-09-19T22:48:02.286Z,8.53
2018-09-19T22:50:38.863Z,9.63
2018-09-19T22:53:15.421Z,8.03
2018-09-19T22:55:51.872Z,5.90
2018-09-19T22:58:28.412Z,7.57
2018-09-19T23:01:05.094Z,8.00
2018-09-19T23:03:41.765Z,7.57
2018-09-19T23:06:18.394Z,7.23
2018-09-19T23:08:54.990Z,12.33
2018-09-19T23:11:31.481Z,10.43
2018-09-19T23:14:07.854Z,7.07
2018-09-19T23:16:44.341Z,6.53
2018-09-19T23:19:20.778Z,7.00
2018-09-19T23:21:57.413Z,6.23
2018-09-19T23:24:34.045Z,8.83
2018-09-19T23:27:10.545Z,7.20
2018-09-19T23:29:47.195Z,6.47
2018-09-19T23:32:23.773Z,6.03
2018-09-19T23:35:00.348Z,6.17
2018-09-19T23:37:36.808Z,5.90
2018-09-19T23:40:13.324Z,5.37
2018-09-19T23:42:49.901Z,6.57
2018-09-19T23:45:26.358Z,6.07
2018-09-19T23:48:03.013Z,8.13
2018-09-19T23:50:39.577Z,8.23
2018-09-19T23:53:16.001Z,7.73
2018-09-19T23:55:52.396Z,10.40
2018-09-19T23:58:28.780Z,9.37
